createdAt,value
2018-07-27T00:00:20.974Z,0.88
2018-07-27T00:02:49.737Z,0.47
2018-07-27T00:05:18.462Z,0.40
2018-07-27T00:07:47.323Z,0.65
2018-07-27T00:10:18.483Z,0.40
2018-07-27T00:12:47.912Z,0.50
2018-07-27T00:15:16.624Z,0.95
2018-07-27T00:17:46.613Z,0.80
2018-07-27T00:20:15.184Z,0.98
2018-07-27T00:22:43.838Z,0.88
2018-07-27T00:25:12.471Z,1.12
2018-07-27T00:27:41.183Z,1.22
2018-07-27T00:30:09.882Z,0.90
2018-07-27T00:32:38.472Z,0.78
2018-07-27T00:35:08.131Z,0.10
2018-07-27T00:39:01.637Z,0.57
2018-07-27T00:41:30.241Z,0.88
2018-07-27T00:43:59.105Z,0.70
2018-07-27T00:46:27.840Z,0.65
2018-07-27T00:48:56.998Z,0.30
2018-07-27T00:51:25.538Z,1.25
2018-07-27T00:53:54.416Z,0.10
2018-07-27T00:56:23.083Z,0.35
2018-07-27T00:58:52.213Z,0.42
2018-07-27T01:01:20.793Z,1.20
2018-07-27T01:03:49.469Z,0.85
2018-07-27T01:06:18.345Z,0.33
2018-07-27T01:08:47.467Z,0.57
2018-07-27T01:11:16.618Z,0.50
2018-07-27T01:13:45.266Z,0.42
2018-07-27T01:16:14.093Z,0.53
2018-07-27T01:18:42.755Z,0.37
2018-07-27T01:21:11.514Z,0.85
2018-07-27T01:23:41.404Z,0.23
2018-07-27T01:26:10.113Z,0.68
2018-07-27T01:28:39.760Z,0.72
2018-07-27T01:31:08.618Z,0.40
2018-07-27T01:33:37.237Z,0.80
2018-07-27T01:36:06.426Z,0.68
2018-07-27T01:38:35.068Z,1.42
2018-07-27T01:41:03.454Z,0.82
2018-07-27T01:43:32.004Z,0.40
2018-07-27T01:46:00.673Z,0.57
2018-07-27T01:48:29.461Z,0.53
2018-07-27T01:50:58.276Z,1.30
2018-07-27T01:53:27.171Z,0.30
2018-07-27T01:55:55.857Z,0.23
2018-07-27T01:58:24.854Z,0.25
2018-07-27T02:00:53.322Z,0.57
2018-07-27T02:03:22.088Z,0.20
2018-07-27T02:05:51.070Z,1.02
2018-07-27T02:08:22.018Z,0.20
2018-07-27T02:10:51.476Z,0.55
2018-07-27T02:13:20.326Z,0.70
2018-07-27T02:15:50.335Z,0.40
2018-07-27T02:18:19.301Z,0.68
2018-07-27T02:20:48.051Z,0.70
2018-07-27T02:23:16.895Z,0.20
2018-07-27T02:25:45.686Z,0.15
2018-07-27T02:28:14.545Z,0.72
2018-07-27T02:30:43.306Z,0.93
2018-07-27T02:33:13.325Z,1.00
2018-07-27T02:35:41.981Z,0.40
2018-07-27T02:38:11.046Z,0.40
2018-07-27T02:40:39.627Z,0.20
2018-07-27T02:43:08.483Z,0.10
2018-07-27T02:45:37.373Z,1.22
2018-07-27T02:48:06.158Z,0.15
2018-07-27T02:50:35.155Z,0.70
2018-07-27T02:53:03.910Z,0.45
2018-07-27T02:55:32.745Z,0.10
2018-07-27T02:58:01.293Z,0.65
2018-07-27T03:00:31.377Z,0.53
2018-07-27T03:02:59.834Z,0.37
2018-07-27T03:05:28.466Z,1.02
2018-07-27T03:07:57.346Z,0.55
2018-07-27T03:10:26.009Z,1.67
2018-07-27T03:12:54.584Z,1.52
2018-07-27T03:15:23.326Z,0.30
2018-07-27T03:17:51.994Z,0.70
2018-07-27T03:20:20.856Z,1.55
2018-07-27T03:22:50.222Z,0.60
2018-07-27T03:25:20.083Z,0.53
2018-07-27T03:27:49.911Z,1.20
2018-07-27T03:30:20.146Z,0.23
2018-07-27T03:32:49.348Z,0.55
2018-07-27T03:35:22.353Z,0.60
2018-07-27T03:37:52.292Z,0.35
2018-07-27T03:40:22.250Z,0.40
2018-07-27T03:42:51.847Z,0.60
2018-07-27T03:45:22.010Z,0.35
2018-07-27T03:47:50.798Z,0.88
2018-07-27T03:50:19.722Z,0.35
2018-07-27T03:52:49.649Z,0.30
2018-07-27T03:55:19.081Z,2.00
2018-07-27T03:57:48.385Z,1.30
2018-07-27T04:00:18.429Z,0.35
2018-07-27T04:02:47.869Z,0.23
2018-07-27T04:05:17.126Z,1.07
2018-07-27T04:07:46.306Z,0.20
2018-07-27T04:10:15.913Z,0.70
2018-07-27T04:12:45.342Z,0.75
2018-07-27T04:15:16.485Z,1.25
2018-07-27T04:17:57.624Z,0.68
2018-07-27T04:20:26.696Z,0.68
2018-07-27T04:22:55.425Z,0.35
2018-07-27T04:25:25.178Z,0.15
2018-07-27T04:27:53.572Z,0.42
2018-07-27T04:30:22.324Z,0.78
2018-07-27T04:32:51.552Z,0.30
2018-07-27T04:35:20.996Z,0.75
2018-07-27T04:37:50.709Z,0.33
2018-07-27T04:40:20.181Z,0.88
2018-07-27T04:42:50.065Z,1.05
2018-07-27T04:45:19.897Z,0.62
2018-07-27T04:47:49.134Z,0.72
2018-07-27T04:50:18.233Z,0.33
2018-07-27T04:52:48.300Z,0.85
2018-07-27T04:55:18.216Z,0.57
2018-07-27T04:57:47.353Z,0.30
2018-07-27T05:00:19.293Z,0.30
2018-07-27T05:04:12.381Z,0.93
2018-07-27T05:06:41.513Z,0.10
2018-07-27T05:09:15.833Z,0.23
2018-07-27T05:11:45.517Z,1.05
2018-07-27T05:14:19.849Z,0.78
2018-07-27T05:16:49.211Z,0.60
2018-07-27T05:19:19.657Z,0.88
2018-07-27T05:21:49.502Z,0.45
2018-07-27T05:24:18.736Z,0.30
2018-07-27T05:26:47.927Z,0.62
2018-07-27T05:29:17.972Z,0.30
2018-07-27T05:31:48.095Z,0.85
2018-07-27T05:34:17.935Z,0.30
2018-07-27T05:36:46.963Z,0.30
2018-07-27T05:39:17.830Z,0.37
2018-07-27T05:41:47.868Z,0.25
2018-07-27T05:44:18.043Z,0.45
2018-07-27T05:46:50.530Z,0.75
2018-07-27T05:49:20.873Z,0.45
2018-07-27T05:51:49.488Z,0.25
2018-07-27T05:54:19.781Z,1.15
2018-07-27T05:56:50.889Z,0.30
2018-07-27T05:59:21.265Z,0.40
2018-07-27T06:01:50.332Z,0.55
2018-07-27T06:04:23.385Z,0.68
2018-07-27T06:06:52.600Z,0.60
2018-07-27T06:09:21.316Z,0.53
2018-07-27T06:11:50.489Z,0.33
2018-07-27T06:14:19.333Z,0.40
2018-07-27T06:16:49.587Z,0.30
2018-07-27T06:19:21.710Z,1.17
2018-07-27T06:21:51.614Z,0.55
2018-07-27T06:24:21.208Z,0.45
2018-07-27T06:26:49.953Z,0.30
2018-07-27T06:29:19.170Z,0.78
2018-07-27T06:31:48.370Z,0.40
2018-07-27T06:34:17.173Z,0.37
2018-07-27T06:36:46.500Z,0.88
2018-07-27T06:39:15.840Z,1.12
2018-07-27T06:41:44.519Z,1.30
2018-07-27T06:44:14.330Z,0.85
2018-07-27T06:46:45.652Z,0.75
2018-07-27T06:49:14.696Z,0.57
2018-07-27T06:51:44.050Z,0.65
2018-07-27T06:54:14.920Z,1.62
2018-07-27T06:56:45.164Z,0.88
2018-07-27T06:59:14.901Z,0.60
2018-07-27T07:01:44.700Z,1.10
2018-07-27T07:04:14.526Z,0.72
2018-07-27T07:06:44.075Z,1.07
2018-07-27T07:09:14.250Z,0.70
2018-07-27T07:11:42.879Z,0.85
2018-07-27T07:14:12.956Z,0.75
2018-07-27T07:16:43.279Z,0.95
2018-07-27T07:19:13.055Z,1.70
2018-07-27T07:21:42.926Z,0.88
2018-07-27T07:24:12.293Z,0.72
2018-07-27T07:26:42.212Z,0.75
2018-07-27T07:29:11.274Z,0.45
2018-07-27T07:31:40.488Z,0.50
2018-07-27T07:34:11.123Z,0.78
2018-07-27T07:36:40.469Z,0.65
2018-07-27T07:39:11.131Z,1.05
2018-07-27T07:41:39.870Z,0.72
2018-07-27T07:44:09.260Z,0.37
2018-07-27T07:46:40.642Z,1.22
2018-07-27T07:49:09.981Z,1.22
2018-07-27T07:51:39.813Z,0.60
2018-07-27T07:54:08.384Z,0.72
2018-07-27T07:56:37.414Z,0.45
2018-07-27T07:59:06.924Z,0.57
2018-07-27T08:01:35.879Z,0.75
2018-07-27T08:04:05.117Z,0.85
2018-07-27T08:06:34.753Z,0.90
2018-07-27T08:09:09.827Z,0.88
2018-07-27T08:11:39.131Z,1.70
2018-07-27T08:14:08.723Z,0.60
2018-07-27T08:16:37.685Z,0.60
2018-07-27T08:19:07.584Z,1.40
2018-07-27T08:21:37.245Z,0.93
2018-07-27T08:24:07.430Z,0.95
2018-07-27T08:27:11.840Z,0.95
2018-07-27T08:29:46.982Z,1.52
2018-07-27T08:32:16.305Z,0.50
2018-07-27T08:34:44.658Z,1.45
2018-07-27T08:37:14.602Z,0.82
2018-07-27T08:39:44.342Z,0.85
2018-07-27T08:42:14.307Z,0.50
2018-07-27T08:44:43.425Z,0.95
2018-07-27T08:47:13.102Z,0.55
2018-07-27T08:49:42.057Z,0.85
2018-07-27T08:52:11.041Z,0.47
2018-07-27T08:54:41.185Z,0.47
2018-07-27T08:57:11.703Z,0.70
2018-07-27T08:59:41.913Z,0.82
2018-07-27T09:02:12.062Z,0.30
2018-07-27T09:04:40.771Z,0.70
2018-07-27T09:07:10.074Z,0.33
2018-07-27T09:09:39.604Z,0.68
2018-07-27T09:12:09.800Z,0.82
2018-07-27T09:14:38.776Z,0.47
2018-07-27T09:17:08.323Z,0.53
2018-07-27T09:19:38.401Z,1.20
2018-07-27T09:22:08.319Z,1.10
2018-07-27T09:24:38.208Z,0.88
2018-07-27T09:27:07.329Z,0.57
2018-07-27T09:29:39.550Z,0.65
2018-07-27T09:32:10.103Z,0.68
2018-07-27T09:34:41.212Z,1.22
2018-07-27T09:37:12.582Z,1.05
2018-07-27T09:39:42.178Z,0.85
2018-07-27T09:42:10.909Z,0.95
2018-07-27T09:44:40.506Z,0.62
2018-07-27T09:47:09.209Z,1.10
2018-07-27T09:49:41.171Z,2.27
2018-07-27T09:52:09.993Z,0.60
2018-07-27T09:54:38.725Z,0.80
2018-07-27T09:57:14.438Z,0.80
2018-07-27T09:59:45.630Z,0.57
2018-07-27T10:02:15.992Z,1.12
2018-07-27T10:21:00.912Z,1.60
2018-07-27T10:23:29.580Z,1.07
2018-07-27T10:25:58.282Z,1.02
2018-07-27T10:28:27.148Z,1.20
2018-07-27T10:30:55.993Z,1.00
2018-07-27T10:33:24.670Z,0.93
2018-07-27T10:35:53.444Z,1.02
2018-07-27T10:38:22.441Z,1.00
2018-07-27T10:40:51.001Z,0.90
2018-07-27T10:43:19.690Z,0.90
2018-07-27T10:45:48.616Z,1.02
2018-07-27T10:48:17.581Z,0.72
2018-07-27T10:50:46.500Z,0.42
2018-07-27T10:53:15.828Z,0.72
2018-07-27T10:55:44.774Z,0.80
2018-07-27T10:58:13.161Z,0.70
2018-07-27T11:00:43.073Z,0.70
2018-07-27T11:03:12.036Z,0.70
2018-07-27T11:05:40.821Z,0.60
2018-07-27T11:08:09.511Z,0.80
2018-07-27T11:10:38.216Z,0.57
2018-07-27T11:13:07.232Z,0.80
2018-07-27T11:15:35.909Z,1.05
2018-07-27T11:18:04.669Z,1.20
2018-07-27T11:20:33.422Z,0.75
2018-07-27T11:23:01.981Z,0.75
2018-07-27T11:25:31.701Z,0.95
2018-07-27T11:28:00.368Z,0.90
2018-07-27T11:30:30.254Z,0.60
2018-07-27T11:32:59.040Z,1.02
2018-07-27T11:35:27.815Z,1.00
2018-07-27T11:37:56.770Z,0.80
2018-07-27T11:40:25.764Z,0.80
2018-07-27T11:42:55.220Z,1.02
2018-07-27T11:45:23.996Z,1.00
2018-07-27T11:47:52.533Z,0.78
2018-07-27T11:50:22.726Z,0.78
2018-07-27T11:52:51.188Z,0.78
2018-07-27T11:55:19.841Z,0.90
2018-07-27T11:57:48.788Z,0.75
2018-07-27T12:00:17.734Z,0.68
2018-07-27T12:02:46.560Z,0.70
2018-07-27T12:05:15.405Z,0.98
2018-07-27T12:07:44.244Z,0.70
2018-07-27T12:10:12.903Z,1.10
2018-07-27T12:12:41.617Z,1.17
2018-07-27T12:15:10.591Z,0.75
2018-07-27T12:17:39.068Z,0.70
2018-07-27T12:20:07.689Z,0.68
2018-07-27T12:22:36.460Z,0.82
2018-07-27T12:25:05.573Z,0.90
2018-07-27T12:27:34.341Z,0.88
2018-07-27T12:30:02.800Z,0.80
2018-07-27T12:32:31.562Z,0.42
2018-07-27T12:37:52.005Z,1.00
2018-07-27T12:45:54.008Z,0.88
2018-07-27T12:48:22.957Z,0.65
2018-07-27T12:50:52.674Z,0.82
2018-07-27T12:53:21.521Z,0.70
2018-07-27T12:55:50.485Z,0.80
2018-07-27T12:58:20.325Z,0.78
2018-07-27T13:00:48.563Z,0.65
2018-07-27T13:03:17.254Z,0.60
2018-07-27T13:05:51.496Z,0.85
2018-07-27T13:08:21.497Z,0.80
2018-07-27T13:10:53.570Z,0.62
2018-07-27T13:13:28.074Z,0.68
2018-07-27T13:16:00.256Z,0.60
2018-07-27T13:18:34.685Z,0.75
2018-07-27T13:21:03.057Z,0.65
2018-07-27T13:23:31.948Z,0.75
2018-07-27T13:28:37.375Z,0.70
2018-07-27T13:31:07.402Z,0.50
2018-07-27T13:33:36.827Z,0.88
2018-07-27T13:36:05.378Z,0.70
2018-07-27T13:38:34.845Z,0.45
2018-07-27T13:41:09.386Z,0.70
2018-07-27T13:43:38.834Z,0.70
2018-07-27T13:46:07.545Z,0.60
2018-07-27T13:48:38.824Z,0.57
2018-07-27T13:51:10.964Z,0.50
2018-07-27T13:53:39.956Z,0.75
2018-07-27T13:56:08.904Z,0.90
2018-07-27T13:58:37.461Z,0.72
2018-07-27T14:01:06.344Z,0.80
2018-07-27T14:03:35.269Z,0.50
2018-07-27T14:06:03.837Z,0.60
2018-07-27T14:08:32.601Z,0.40
2018-07-27T14:11:01.484Z,0.62
2018-07-27T14:13:30.670Z,0.53
2018-07-27T14:15:59.575Z,0.62
2018-07-27T14:18:28.228Z,0.40
2018-07-27T14:20:57.990Z,0.80
2018-07-27T14:23:28.455Z,0.80
2018-07-27T14:25:57.584Z,0.50
2018-07-27T14:28:31.712Z,0.78
2018-07-27T14:31:00.093Z,0.82
2018-07-27T14:33:28.871Z,0.65
2018-07-27T14:35:57.757Z,0.60
2018-07-27T14:38:29.319Z,0.45
2018-07-27T14:40:58.289Z,0.62
2018-07-27T14:43:27.267Z,0.60
2018-07-27T14:45:55.801Z,0.57
2018-07-27T14:48:24.638Z,0.70
2018-07-27T14:50:53.360Z,0.70
2018-07-27T14:53:22.320Z,0.80
2018-07-27T14:55:50.889Z,0.68
2018-07-27T14:58:19.653Z,0.50
2018-07-27T15:00:48.365Z,0.53
2018-07-27T15:03:17.165Z,0.53
2018-07-27T15:05:46.054Z,0.65
2018-07-27T15:08:15.012Z,0.60
2018-07-27T15:10:44.025Z,0.55
2018-07-27T15:13:13.084Z,0.85
2018-07-27T15:15:45.864Z,1.02
2018-07-27T15:18:15.465Z,0.90
2018-07-27T15:20:44.230Z,0.90
2018-07-27T15:23:15.977Z,0.60
2018-07-27T15:25:44.718Z,0.50
2018-07-27T15:28:13.463Z,0.78
2018-07-27T15:30:42.342Z,0.70
2018-07-27T15:33:12.201Z,0.50
2018-07-27T15:35:41.892Z,0.50
2018-07-27T15:38:11.207Z,0.60
2018-07-27T15:40:40.692Z,0.60
2018-07-27T15:43:09.628Z,0.80
2018-07-27T15:45:38.302Z,0.75
2018-07-27T15:48:10.337Z,0.70
2018-07-27T15:50:45.199Z,0.50
2018-07-27T15:53:14.069Z,0.47
2018-07-27T15:55:43.114Z,0.50
2018-07-27T15:58:11.808Z,0.60
2018-07-27T16:00:40.768Z,0.72
2018-07-27T16:03:10.430Z,0.53
2018-07-27T16:05:38.772Z,0.78
2018-07-27T16:08:07.793Z,0.70
2018-07-27T16:10:43.264Z,0.50
2018-07-27T16:13:19.095Z,0.57
2018-07-27T16:15:59.185Z,0.80
2018-07-27T16:18:34.084Z,0.70
2018-07-27T16:21:10.451Z,0.93
2018-07-27T16:23:39.488Z,0.60
2018-07-27T16:26:08.228Z,0.60
2018-07-27T16:28:46.536Z,0.70
2018-07-27T16:31:15.066Z,0.70
2018-07-27T16:33:47.805Z,0.88
2018-07-27T16:36:35.513Z,0.75
2018-07-27T16:39:20.818Z,0.90
2018-07-27T16:42:02.425Z,1.10
2018-07-27T16:44:32.183Z,1.20
2018-07-27T16:47:04.075Z,1.40
2018-07-27T16:49:35.966Z,1.20
2018-07-27T16:52:10.348Z,1.05
2018-07-27T16:54:38.970Z,1.00
2018-07-27T16:57:07.794Z,1.30
2018-07-27T16:59:39.968Z,2.20
2018-07-27T17:02:11.734Z,2.08
2018-07-27T17:04:41.445Z,1.50
2018-07-27T17:07:10.111Z,1.30
2018-07-27T17:09:46.541Z,1.40
2018-07-27T17:12:31.932Z,0.90
2018-07-27T17:15:15.284Z,1.00
2018-07-27T17:17:51.624Z,1.17
2018-07-27T17:20:38.169Z,1.00
2018-07-27T17:23:13.504Z,0.98
2018-07-27T17:25:48.366Z,0.95
2018-07-27T17:28:28.550Z,0.90
2018-07-27T17:31:04.885Z,0.70
2018-07-27T17:33:45.932Z,0.62
2018-07-27T17:36:17.523Z,0.70
2018-07-27T17:38:51.770Z,0.70
2018-07-27T17:41:21.164Z,0.70
2018-07-27T17:47:00.005Z,0.70
2018-07-27T17:49:38.182Z,0.60
2018-07-27T17:52:13.805Z,0.70
2018-07-27T17:54:43.079Z,0.53
2018-07-27T17:57:17.796Z,0.55
2018-07-27T17:59:49.540Z,0.42
2018-07-27T18:02:24.214Z,0.50
2018-07-27T18:04:58.818Z,0.65
2018-07-27T18:07:40.294Z,0.57
2018-07-27T18:10:16.469Z,0.53
2018-07-27T18:12:45.836Z,0.72
2018-07-27T18:15:26.577Z,0.70
2018-07-27T18:18:01.081Z,0.55
2018-07-27T18:20:30.174Z,0.60
2018-07-27T18:23:08.532Z,0.60
2018-07-27T18:25:42.422Z,0.70
2018-07-27T18:28:11.602Z,0.75
2018-07-27T18:30:40.196Z,0.40
2018-07-27T18:33:09.551Z,0.60
2018-07-27T18:35:43.401Z,0.53
2018-07-27T18:38:12.577Z,0.70
2018-07-27T18:40:47.529Z,0.40
2018-07-27T18:43:33.446Z,0.50
2018-07-27T18:53:14.059Z,0.57
2018-07-27T18:55:49.984Z,0.40
2018-07-27T18:58:24.903Z,0.50
2018-07-27T19:00:56.968Z,0.45
2018-07-27T19:06:28.306Z,0.45
2018-07-27T19:09:15.729Z,0.70
2018-07-27T19:11:44.806Z,0.50
2018-07-27T19:14:30.938Z,0.50
2018-07-27T19:17:02.869Z,0.57
2018-07-27T19:19:36.528Z,0.47
2018-07-27T19:22:14.924Z,0.62
2018-07-27T19:24:43.606Z,0.50
2018-07-27T19:27:23.974Z,0.50
2018-07-27T19:30:02.627Z,0.42
2018-07-27T19:32:32.176Z,0.42
2018-07-27T19:35:04.310Z,0.40
2018-07-27T19:37:32.917Z,0.45
2018-07-27T19:40:11.344Z,0.30
2018-07-27T19:45:27.705Z,0.50
2018-07-27T19:48:04.073Z,0.40
2018-07-27T19:50:35.824Z,0.42
2018-07-27T19:53:13.529Z,0.40
2018-07-27T19:55:59.832Z,0.42
2018-07-27T19:58:28.605Z,0.42
2018-07-27T20:00:57.054Z,0.28
2018-07-27T20:03:28.399Z,0.25
2018-07-27T20:06:03.158Z,0.20
2018-07-27T20:08:47.676Z,0.30
2018-07-27T20:11:33.497Z,0.28
2018-07-27T20:14:07.719Z,0.40
2018-07-27T20:16:36.085Z,0.30
2018-07-27T20:19:04.990Z,0.33
2018-07-27T20:24:35.636Z,0.60
2018-07-27T20:27:16.093Z,0.47
2018-07-27T20:29:51.426Z,0.45
2018-07-27T20:32:20.102Z,0.40
2018-07-27T20:34:52.009Z,0.30
2018-07-27T20:37:40.046Z,0.35
2018-07-27T20:40:11.655Z,0.20
2018-07-27T20:42:57.520Z,0.33
2018-07-27T20:45:29.028Z,0.50
2018-07-27T20:48:05.256Z,0.40
2018-07-27T20:53:34.881Z,0.28
2018-07-27T20:56:06.118Z,0.40
2018-07-27T20:58:35.072Z,0.25
2018-07-27T21:01:16.397Z,0.30
2018-07-27T21:03:45.481Z,0.35
2018-07-27T21:06:18.653Z,0.28
2018-07-27T21:11:38.451Z,0.30
2018-07-27T21:14:16.385Z,0.40
2018-07-27T21:22:36.808Z,0.30
2018-07-27T21:25:06.000Z,0.28
2018-07-27T21:27:36.481Z,0.50
2018-07-27T21:30:14.321Z,0.30
2018-07-27T21:32:54.449Z,0.20
2018-07-27T21:35:30.693Z,0.17
2018-07-27T21:37:59.946Z,0.40
2018-07-27T21:40:28.816Z,0.30
2018-07-27T21:42:57.706Z,0.33
2018-07-27T21:45:26.637Z,0.35
2018-07-27T21:47:55.343Z,0.10
2018-07-27T21:50:24.203Z,0.40
2018-07-27T21:52:54.357Z,0.33
2018-07-27T21:55:23.188Z,0.40
2018-07-27T21:57:52.063Z,0.30
2018-07-27T22:00:20.997Z,0.20
2018-07-27T22:02:49.648Z,0.33
2018-07-27T22:05:18.671Z,0.40
2018-07-27T22:07:50.324Z,0.40
2018-07-27T22:10:19.577Z,0.35
2018-07-27T22:12:48.767Z,0.53
2018-07-27T22:15:22.725Z,0.30
2018-07-27T22:17:51.991Z,0.20
2018-07-27T22:20:38.884Z,0.30
2018-07-27T22:23:18.475Z,0.17
2018-07-27T22:25:51.005Z,0.30
2018-07-27T22:28:24.842Z,0.40
2018-07-27T22:31:05.000Z,0.37
2018-07-27T22:33:39.242Z,0.25
2018-07-27T22:36:25.386Z,0.30
2018-07-27T22:38:55.012Z,0.40
2018-07-27T22:41:23.842Z,0.17
2018-07-27T22:43:59.900Z,0.20
2018-07-27T22:46:45.560Z,0.40
2018-07-27T22:49:19.542Z,0.20
2018-07-27T22:51:59.902Z,0.40
2018-07-27T22:54:31.484Z,0.20
2018-07-27T22:57:00.349Z,0.20
2018-07-27T22:59:37.082Z,0.30
2018-07-27T23:02:05.333Z,0.30
2018-07-27T23:04:35.216Z,0.80
2018-07-27T23:07:04.602Z,0.90
2018-07-27T23:09:32.932Z,0.70
2018-07-27T23:12:02.105Z,0.60
2018-07-27T23:14:31.739Z,0.72
2018-07-27T23:17:00.952Z,0.50
2018-07-27T23:19:29.608Z,0.75
2018-07-27T23:21:58.673Z,1.27
2018-07-27T23:24:32.280Z,1.20
2018-07-27T23:27:01.287Z,0.88
2018-07-27T23:29:30.182Z,1.30
2018-07-27T23:32:01.031Z,2.10
2018-07-27T23:34:30.805Z,2.58
2018-07-27T23:36:59.424Z,2.37
2018-07-27T23:39:28.213Z,3.10
2018-07-27T23:41:57.267Z,2.67
2018-07-27T23:44:29.155Z,2.40
2018-07-27T23:46:59.289Z,3.27
2018-07-27T23:49:27.741Z,3.42
2018-07-27T23:51:56.524Z,2.90
2018-07-27T23:54:26.215Z,2.60
2018-07-27T23:56:58.177Z,2.00
2018-07-27T23:59:27.232Z,2.08
